Buffalo, WY (82840)

10:58 AM MDT on July 23, 2016 (GMT -0600)
Esponda Ranch | | Change Station

Elev 4665 ft 44.32 °N, 106.67 °W | Updated 3 minutes ago

Clear
Clear
75.9 °F
Feels Like 77 °F
N
7.0
Wind Variable Wind from NNE
Gusts 10.0 mph

Today
High -- | Low -- °F
--% Chance of Precip.
Yesterday
High -- | Low -- °F
Precip. -- in
Pressure 29.92 in
Visibility 10.0 miles
Clouds Clear
Heat Index 77 °F
Dew Point 44 °F
Humidity 32%
Rainfall 0.00 in
Snow Depth Not available.
5:44 AM 8:40 PM
Waning Gibbous, 84% visible
METAR KBYG 231653Z AUTO 32006G15KT 10SM CLR 24/04 A3011 RMK AO2 SLP131 T02390044
Pressure 29.92 in
Visibility 10.0 miles
Clouds Clear
Heat Index 77 °F
Dew Point 44 °F
Humidity 32%
Rainfall 0.00 in
Snow Depth Not available.
5:44 AM 8:40 PM
Waning Gibbous, 84% visible
METAR KBYG 231653Z AUTO 32006G15KT 10SM CLR 24/04 A3011 RMK AO2 SLP131 T02390044

10-Day Weather Forecast

Almanac

Astronomy

Jul. 23, 2016 Rise Set
Actual Time
Civil Twilight
Nautical Twilight
Astronomical Twilight
Moon
Length of Visible Light
Length of Day
Tomorrow will be .
, % of the Moon is Illuminated

Today's Extremes

State Highs State Lows

Community

WunderPhotos

Upload Photos

1,926,861 photos uploaded!

WunderBlog® & News

Nearby

Air Quality

  Air Quality AQ Index Pollutant
Not available.

Snow Depth

Station Depth Elevation

Earthquake Activity

City Distance Mag. Time & Date
Minimum magnitude displayed is 2.5.

Coastal Water Temperatures

Place Temperature

Stations

Nearby Weather Stations

Station Location Temp. Windchill Dew Point Humidity Wind Precip. Elev Updated Type
                   

Watches & Warnings

There are currently no watches in effect.